createdAt,value
2017-12-20T00:00:14.357Z,42.13
2017-12-20T00:02:45.490Z,46.03
2017-12-20T00:05:15.767Z,45.60
2017-12-20T00:07:46.516Z,42.88
2017-12-20T00:10:17.141Z,43.55
2017-12-20T00:12:48.380Z,38.50
2017-12-20T00:15:19.240Z,41.77
2017-12-20T00:17:49.899Z,47.03
2017-12-20T00:20:20.303Z,54.72
2017-12-20T00:22:50.966Z,56.35
2017-12-20T00:25:22.393Z,51.30
2017-12-20T00:27:54.957Z,51.25
2017-12-20T00:30:27.129Z,45.80
2017-12-20T00:32:58.173Z,48.78
2017-12-20T00:35:28.660Z,46.50
2017-12-20T00:37:59.368Z,45.40
2017-12-20T00:40:32.359Z,48.37
2017-12-20T00:43:04.759Z,45.78
2017-12-20T00:45:35.392Z,49.35
2017-12-20T00:48:06.106Z,42.38
2017-12-20T00:50:37.387Z,44.10
2017-12-20T00:53:08.871Z,49.80
2017-12-20T00:55:39.841Z,49.03
2017-12-20T00:58:11.489Z,55.70
2017-12-20T01:00:41.987Z,53.22
2017-12-20T01:03:13.693Z,46.63
2017-12-20T01:05:44.999Z,40.17
2017-12-20T01:08:16.002Z,38.33
2017-12-20T01:10:46.542Z,30.92
2017-12-20T01:13:17.414Z,33.38
2017-12-20T01:15:48.982Z,32.87
2017-12-20T01:18:19.913Z,31.33
2017-12-20T01:20:51.118Z,37.55
2017-12-20T01:23:22.826Z,41.58
2017-12-20T01:25:53.916Z,41.22
2017-12-20T01:28:24.818Z,36.78
2017-12-20T01:30:55.386Z,37.35
2017-12-20T01:33:25.859Z,40.42
2017-12-20T01:35:56.370Z,32.90
2017-12-20T01:38:27.617Z,32.78
2017-12-20T01:40:58.592Z,33.95
2017-12-20T01:46:59.052Z,43.83
2017-12-20T01:49:29.947Z,44.05
2017-12-20T01:52:01.307Z,45.72
2017-12-20T01:54:33.660Z,49.42
2017-12-20T01:57:05.050Z,41.10
2017-12-20T01:59:36.814Z,44.53
2017-12-20T02:02:08.641Z,31.40
2017-12-20T02:04:39.069Z,33.45
2017-12-20T02:07:10.079Z,31.90
2017-12-20T02:09:41.537Z,30.37
2017-12-20T02:12:12.632Z,27.67
2017-12-20T02:14:43.285Z,26.37
2017-12-20T02:17:14.656Z,28.55
2017-12-20T02:19:46.035Z,27.10
2017-12-20T02:22:17.262Z,29.40
2017-12-20T02:24:48.013Z,33.97
2017-12-20T02:27:18.701Z,34.93
2017-12-20T02:29:49.652Z,38.22
2017-12-20T02:32:20.121Z,39.97
2017-12-20T02:34:50.818Z,35.40
2017-12-20T02:37:21.540Z,36.87
2017-12-20T02:39:52.549Z,35.75
2017-12-20T02:42:23.911Z,35.45
2017-12-20T02:44:55.102Z,33.30
2017-12-20T02:47:26.087Z,33.50
2017-12-20T02:49:57.483Z,33.72
2017-12-20T02:52:28.272Z,29.00
2017-12-20T02:54:58.788Z,23.35
2017-12-20T02:57:29.818Z,26.65
2017-12-20T03:00:00.792Z,26.53
2017-12-20T03:02:32.546Z,27.55
2017-12-20T03:05:03.641Z,27.30
2017-12-20T03:07:34.450Z,28.17
2017-12-20T03:10:06.164Z,27.85
2017-12-20T03:12:36.902Z,27.93
2017-12-20T03:15:07.715Z,27.40
2017-12-20T03:17:38.778Z,23.12
2017-12-20T03:20:09.891Z,23.35
2017-12-20T03:22:40.662Z,25.73
2017-12-20T03:25:11.562Z,29.87
2017-12-20T03:27:42.406Z,30.58
2017-12-20T03:30:13.121Z,29.85
2017-12-20T03:32:44.722Z,29.95
2017-12-20T03:35:15.750Z,29.90
2017-12-20T03:37:47.730Z,28.20
2017-12-20T03:40:18.000Z,32.30
2017-12-20T03:42:49.110Z,30.93
2017-12-20T03:45:19.842Z,32.78
2017-12-20T03:50:27.431Z,32.58
2017-12-20T03:52:59.097Z,30.37
2017-12-20T03:59:06.492Z,33.42
2017-12-20T04:01:37.609Z,33.40
2017-12-20T04:04:18.572Z,35.65
2017-12-20T04:06:54.978Z,35.27
2017-12-20T04:09:25.850Z,33.28
2017-12-20T04:11:56.396Z,34.15
2017-12-20T04:14:27.293Z,38.90
2017-12-20T04:16:58.724Z,38.70
2017-12-20T04:19:29.221Z,38.40
2017-12-20T04:21:59.741Z,41.87
2017-12-20T04:24:31.131Z,36.70
2017-12-20T04:27:02.226Z,39.20
2017-12-20T04:29:32.515Z,36.33
2017-12-20T04:32:03.054Z,36.45
2017-12-20T04:34:33.822Z,34.45
2017-12-20T04:37:05.099Z,33.17
2017-12-20T04:39:36.461Z,24.00
2017-12-20T04:42:07.116Z,21.35
2017-12-20T04:44:38.270Z,17.47
2017-12-20T04:47:09.003Z,15.32
2017-12-20T04:49:40.065Z,20.00
2017-12-20T04:52:11.795Z,33.15
2017-12-20T04:54:43.190Z,25.27
2017-12-20T04:57:13.449Z,22.62
2017-12-20T04:59:44.075Z,22.75
2017-12-20T05:02:14.239Z,23.17
2017-12-20T05:04:47.328Z,22.17
2017-12-20T05:07:17.897Z,24.27
2017-12-20T05:09:48.369Z,20.95
2017-12-20T05:12:19.121Z,19.75
2017-12-20T05:14:49.678Z,25.35
2017-12-20T05:17:20.744Z,22.50
2017-12-20T05:19:52.396Z,23.55
2017-12-20T05:22:22.807Z,25.30
2017-12-20T05:24:53.419Z,26.45
2017-12-20T05:27:25.426Z,23.95
2017-12-20T05:29:56.140Z,22.13
2017-12-20T05:32:26.848Z,19.40
2017-12-20T05:34:57.095Z,19.23
2017-12-20T05:37:28.763Z,18.55
2017-12-20T05:40:00.355Z,18.65
2017-12-20T05:42:31.882Z,16.30
2017-12-20T05:45:04.031Z,15.35
2017-12-20T05:47:36.322Z,14.65
2017-12-20T05:50:08.369Z,16.83
2017-12-20T05:52:38.768Z,13.02
2017-12-20T05:55:10.589Z,16.90
2017-12-20T05:57:41.815Z,16.12
2017-12-20T06:00:13.553Z,14.27
2017-12-20T06:02:44.626Z,18.12
2017-12-20T06:05:15.724Z,18.65
2017-12-20T06:07:47.475Z,16.90
2017-12-20T06:10:19.428Z,18.55
2017-12-20T06:12:51.430Z,20.55
2017-12-20T06:15:47.286Z,20.15
2017-12-20T06:18:18.299Z,18.27
2017-12-20T06:21:01.570Z,22.30
2017-12-20T06:23:35.038Z,23.65
2017-12-20T06:26:41.813Z,25.40
2017-12-20T06:29:13.542Z,26.35
2017-12-20T06:31:44.305Z,23.67
2017-12-20T06:34:18.452Z,26.70
2017-12-20T06:36:55.560Z,29.98
2017-12-20T06:39:29.822Z,27.13
2017-12-20T06:42:00.240Z,27.13
2017-12-20T06:44:31.483Z,28.10
2017-12-20T06:47:27.210Z,25.05
2017-12-20T06:49:58.466Z,16.10
2017-12-20T06:52:33.532Z,13.73
2017-12-20T06:55:05.332Z,13.70
2017-12-20T06:57:56.101Z,12.37
2017-12-20T07:00:34.658Z,13.85
2017-12-20T07:03:06.140Z,13.97
2017-12-20T07:05:37.725Z,11.70
2017-12-20T07:08:09.458Z,12.97
2017-12-20T07:10:44.655Z,15.40
2017-12-20T07:13:15.564Z,15.03
2017-12-20T07:15:45.913Z,15.88
2017-12-20T07:18:16.188Z,14.85
2017-12-20T07:20:47.782Z,15.17
2017-12-20T07:23:18.263Z,17.35
2017-12-20T07:25:55.001Z,19.15
2017-12-20T07:28:25.546Z,33.88
2017-12-20T07:30:56.511Z,31.75
2017-12-20T07:33:44.045Z,27.67
2017-12-20T07:36:15.962Z,28.85
2017-12-20T07:38:46.648Z,32.00
2017-12-20T07:41:17.758Z,31.25
2017-12-20T07:43:49.188Z,28.25
2017-12-20T07:46:19.953Z,25.85
2017-12-20T07:48:52.718Z,28.80
2017-12-20T07:51:23.618Z,36.63
2017-12-20T07:54:22.288Z,35.83
2017-12-20T07:56:54.874Z,33.17
2017-12-20T07:59:28.599Z,27.00
2017-12-20T08:01:59.274Z,22.27
2017-12-20T08:04:31.878Z,32.40
2017-12-20T08:07:02.583Z,24.90
2017-12-20T08:09:34.466Z,31.20
2017-12-20T08:12:05.668Z,27.27
2017-12-20T08:14:39.738Z,25.07
2017-12-20T08:17:11.757Z,22.80
2017-12-20T08:22:23.166Z,27.42
2017-12-20T08:25:11.796Z,26.97
2017-12-20T08:27:43.161Z,21.52
2017-12-20T08:30:40.233Z,25.45
2017-12-20T08:33:28.117Z,25.02
2017-12-20T08:36:03.809Z,27.80
2017-12-20T08:38:39.385Z,26.17
2017-12-20T08:41:13.734Z,27.00
2017-12-20T08:43:44.791Z,24.33
2017-12-20T08:46:15.131Z,31.83
2017-12-20T08:48:46.636Z,24.83
2017-12-20T08:51:17.219Z,26.77
2017-12-20T08:53:49.834Z,26.62
2017-12-20T08:56:25.233Z,24.30
2017-12-20T08:58:57.680Z,23.30
2017-12-20T09:01:33.433Z,22.02
2017-12-20T09:04:04.600Z,23.85
2017-12-20T09:06:36.237Z,27.20
2017-12-20T09:09:10.238Z,35.17
2017-12-20T09:11:41.557Z,29.37
2017-12-20T09:14:14.155Z,28.80
2017-12-20T09:16:48.251Z,24.83
2017-12-20T09:19:24.165Z,24.65
2017-12-20T09:21:55.707Z,23.58
2017-12-20T09:24:26.606Z,21.77
2017-12-20T09:26:58.058Z,27.85
2017-12-20T09:29:28.968Z,22.00
2017-12-20T09:32:22.635Z,21.83
2017-12-20T09:34:54.421Z,23.67
2017-12-20T09:37:25.269Z,25.67
2017-12-20T09:39:55.689Z,25.92
2017-12-20T09:42:45.742Z,25.52
2017-12-20T09:45:17.066Z,27.27
2017-12-20T09:47:56.949Z,28.45
2017-12-20T09:50:33.920Z,22.02
2017-12-20T09:53:04.702Z,26.90
2017-12-20T09:58:36.072Z,25.63
2017-12-20T10:01:12.265Z,23.45
2017-12-20T10:03:43.085Z,30.25
2017-12-20T10:06:16.638Z,27.60
2017-12-20T10:08:52.788Z,23.80
2017-12-20T10:11:35.388Z,28.73
2017-12-20T10:14:06.988Z,29.13
2017-12-20T10:16:37.816Z,26.30
2017-12-20T10:22:45.171Z,28.35
2017-12-20T10:25:18.350Z,28.58
2017-12-20T10:27:50.947Z,25.40
2017-12-20T10:30:23.011Z,29.17
2017-12-20T10:33:37.040Z,26.02
2017-12-20T10:36:31.355Z,25.13
2017-12-20T10:39:06.049Z,29.17
2017-12-20T10:41:37.276Z,22.37
2017-12-20T10:44:08.273Z,23.92
2017-12-20T10:46:39.833Z,22.60
2017-12-20T10:49:15.693Z,19.90
2017-12-20T10:52:01.668Z,16.08
2017-12-20T10:54:35.192Z,18.20
2017-12-20T10:57:07.072Z,19.95
2017-12-20T10:59:37.953Z,22.55
2017-12-20T11:02:08.541Z,15.83
2017-12-20T11:04:39.579Z,16.80
2017-12-20T11:07:09.911Z,21.70
2017-12-20T11:09:52.398Z,16.77
2017-12-20T11:12:25.084Z,16.43
2017-12-20T11:14:56.530Z,18.25
2017-12-20T11:17:28.857Z,18.87
2017-12-20T11:20:00.690Z,18.27
2017-12-20T11:22:32.977Z,19.27
2017-12-20T11:25:38.260Z,15.88
2017-12-20T11:28:29.870Z,16.87
2017-12-20T11:31:01.899Z,20.95
2017-12-20T11:33:50.928Z,21.50
2017-12-20T11:36:25.299Z,22.37
2017-12-20T11:38:57.207Z,21.10
2017-12-20T11:42:11.875Z,23.03
2017-12-20T11:44:44.876Z,25.37
2017-12-20T11:47:15.632Z,25.35
2017-12-20T11:49:46.091Z,22.83
2017-12-20T11:52:17.484Z,22.23
2017-12-20T11:54:48.118Z,22.13
2017-12-20T11:57:18.374Z,17.73
2017-12-20T11:59:49.263Z,22.92
2017-12-20T12:05:07.565Z,21.30
2017-12-20T12:07:43.246Z,27.80
2017-12-20T12:10:21.968Z,21.80
2017-12-20T12:18:51.324Z,23.33
2017-12-20T12:21:32.963Z,24.73
2017-12-20T12:24:13.090Z,27.35
2017-12-20T12:26:43.619Z,30.17
2017-12-20T12:29:16.666Z,27.73
2017-12-20T12:31:48.311Z,25.92
2017-12-20T12:34:32.183Z,17.20
2017-12-20T12:37:11.457Z,21.37
2017-12-20T12:39:53.069Z,13.52
2017-12-20T12:47:45.782Z,12.23
2017-12-20T12:50:23.764Z,23.85
2017-12-20T12:52:58.412Z,22.13
2017-12-20T12:55:40.542Z,20.65
2017-12-20T12:58:11.601Z,20.85
2017-12-20T13:00:42.923Z,22.25
2017-12-20T13:03:14.627Z,22.53
2017-12-20T13:05:47.382Z,17.65
2017-12-20T13:08:18.451Z,15.90
2017-12-20T13:11:08.638Z,15.00
2017-12-20T13:13:40.059Z,15.02
2017-12-20T13:16:25.746Z,16.83
2017-12-20T13:18:58.793Z,15.43
2017-12-20T13:21:29.587Z,18.85
2017-12-20T13:24:18.740Z,18.93
2017-12-20T13:26:50.327Z,16.87
2017-12-20T13:29:21.797Z,17.55
2017-12-20T13:31:52.149Z,15.07
2017-12-20T13:34:23.072Z,14.32
2017-12-20T13:36:54.820Z,9.00
2017-12-20T13:39:26.687Z,7.82
2017-12-20T13:41:57.922Z,12.50
2017-12-20T13:44:28.592Z,10.57
2017-12-20T13:47:13.934Z,10.68
2017-12-20T13:49:45.439Z,10.15
2017-12-20T13:52:29.191Z,12.20
2017-12-20T13:55:14.650Z,10.27
2017-12-20T13:57:46.722Z,13.90
2017-12-20T14:00:19.237Z,17.27
2017-12-20T14:02:50.108Z,18.83
2017-12-20T14:05:23.475Z,19.73
2017-12-20T14:07:57.766Z,23.20
2017-12-20T14:10:29.347Z,25.07
2017-12-20T14:13:02.374Z,22.20
2017-12-20T14:15:33.636Z,30.70
2017-12-20T14:18:05.147Z,25.55
2017-12-20T14:20:36.906Z,23.23
2017-12-20T14:23:09.926Z,22.85
2017-12-20T14:25:42.248Z,25.15
2017-12-20T14:28:14.890Z,29.98
2017-12-20T14:30:47.323Z,32.03
2017-12-20T14:33:18.296Z,29.35
2017-12-20T14:35:52.416Z,30.52
2017-12-20T14:38:23.740Z,24.10
2017-12-20T14:44:33.711Z,16.87
2017-12-20T14:47:07.866Z,16.30
2017-12-20T14:49:42.190Z,16.15
2017-12-20T14:52:13.334Z,14.50
2017-12-20T14:54:44.192Z,20.10
2017-12-20T14:57:19.543Z,24.60
2017-12-20T14:59:50.004Z,22.27
2017-12-20T15:02:21.612Z,24.37
2017-12-20T15:05:02.536Z,22.97
2017-12-20T15:07:34.132Z,28.97
2017-12-20T15:10:07.038Z,25.58
2017-12-20T15:12:48.193Z,23.80
2017-12-20T15:15:18.682Z,21.12
2017-12-20T15:17:50.794Z,26.25
2017-12-20T15:20:24.192Z,17.85
2017-12-20T15:23:04.132Z,21.80
2017-12-20T15:25:35.069Z,24.35
2017-12-20T15:28:05.511Z,22.50
2017-12-20T15:30:38.027Z,23.38
2017-12-20T15:33:22.591Z,21.85
2017-12-20T15:35:56.568Z,27.02
2017-12-20T15:38:51.513Z,25.35
2017-12-20T15:41:22.872Z,27.60
2017-12-20T15:43:54.705Z,26.10
2017-12-20T15:46:27.497Z,27.05
2017-12-20T15:52:36.664Z,27.65
2017-12-20T15:55:29.057Z,24.58
2017-12-20T15:58:00.067Z,31.40
2017-12-20T16:00:44.776Z,30.35
2017-12-20T16:07:31.859Z,25.00
2017-12-20T16:10:38.571Z,27.98
2017-12-20T16:13:19.999Z,26.70
2017-12-20T16:16:10.337Z,25.10
2017-12-20T16:18:53.881Z,23.50
2017-12-20T16:21:45.891Z,24.25
2017-12-20T16:24:17.571Z,23.05
2017-12-20T16:26:49.522Z,26.30
2017-12-20T16:29:20.267Z,23.55
2017-12-20T16:31:51.768Z,23.12
2017-12-20T16:37:17.605Z,25.45
2017-12-20T16:40:14.400Z,28.75
2017-12-20T16:42:46.920Z,21.17
2017-12-20T16:45:18.470Z,20.07
2017-12-20T16:47:49.874Z,19.47
2017-12-20T17:08:20.145Z,21.12
2017-12-20T17:10:49.808Z,18.40
2017-12-20T17:13:21.244Z,23.87
2017-12-20T17:15:51.385Z,27.83
2017-12-20T17:18:21.249Z,25.40
2017-12-20T17:20:51.794Z,31.20
2017-12-20T17:23:24.048Z,27.35
2017-12-20T17:25:53.753Z,33.83
2017-12-20T17:28:24.078Z,30.58
2017-12-20T17:30:53.761Z,29.50
2017-12-20T17:33:24.166Z,27.25
2017-12-20T17:35:54.606Z,28.02
2017-12-20T17:38:24.228Z,27.55
2017-12-20T17:40:53.876Z,29.37
2017-12-20T17:43:23.608Z,25.25
2017-12-20T17:45:54.036Z,21.70
2017-12-20T17:48:24.153Z,22.33
2017-12-20T17:50:54.633Z,21.35
2017-12-20T17:53:24.280Z,23.30
2017-12-20T17:55:55.112Z,23.52
2017-12-20T17:58:25.552Z,26.77
2017-12-20T18:00:55.988Z,30.85
2017-12-20T18:03:28.005Z,32.55
2017-12-20T18:05:59.479Z,30.45
2017-12-20T18:08:30.848Z,27.70
2017-12-20T18:11:01.468Z,25.95
2017-12-20T18:13:32.188Z,32.72
2017-12-20T18:16:06.536Z,30.62
2017-12-20T18:18:37.562Z,26.35
2017-12-20T18:21:08.009Z,21.95
2017-12-20T18:23:38.692Z,20.17
2017-12-20T18:26:08.402Z,20.35
2017-12-20T18:28:38.718Z,21.70
2017-12-20T18:31:08.830Z,22.67
2017-12-20T18:33:41.686Z,28.40
2017-12-20T18:36:11.445Z,24.90
2017-12-20T18:38:46.053Z,27.52
2017-12-20T18:41:18.127Z,28.48
2017-12-20T18:43:47.906Z,29.35
2017-12-20T18:46:17.550Z,25.98
2017-12-20T18:48:47.522Z,22.70
2017-12-20T18:51:18.260Z,23.12
2017-12-20T18:53:47.992Z,19.48
2017-12-20T18:56:17.690Z,22.60
2017-12-20T18:58:51.057Z,22.20
2017-12-20T19:01:25.932Z,22.33
2017-12-20T19:03:58.052Z,21.58
2017-12-20T19:06:31.161Z,22.67
2017-12-20T19:09:02.772Z,23.85
2017-12-20T19:11:33.297Z,24.65
2017-12-20T19:14:03.919Z,34.55
2017-12-20T19:16:36.332Z,37.03
2017-12-20T19:19:07.063Z,53.53
2017-12-20T19:21:37.345Z,42.05
2017-12-20T19:24:10.533Z,41.37
2017-12-20T19:26:40.287Z,37.17
2017-12-20T19:29:09.942Z,34.60
2017-12-20T19:31:40.085Z,30.90
2017-12-20T19:34:09.721Z,26.87
2017-12-20T19:36:39.534Z,27.07
2017-12-20T19:39:10.139Z,25.62
2017-12-20T19:41:39.777Z,27.10
2017-12-20T19:44:10.578Z,28.58
2017-12-20T19:46:40.239Z,27.20
2017-12-20T19:49:09.925Z,29.73
2017-12-20T19:51:40.784Z,24.40
2017-12-20T19:54:12.178Z,25.00
2017-12-20T19:56:41.861Z,24.23
2017-12-20T19:59:11.515Z,26.40
2017-12-20T20:01:41.225Z,28.65
2017-12-20T20:04:12.238Z,27.20
2017-12-20T20:06:41.929Z,31.87
2017-12-20T20:09:11.629Z,28.20
2017-12-20T20:11:41.693Z,29.48
2017-12-20T20:14:11.328Z,33.40
2017-12-20T20:16:41.765Z,28.20
2017-12-20T20:19:12.180Z,25.27
2017-12-20T20:21:42.642Z,27.50
2017-12-20T20:24:12.688Z,26.77
2017-12-20T20:26:44.017Z,28.20
2017-12-20T20:29:13.958Z,31.00
2017-12-20T20:31:44.373Z,24.70
2017-12-20T20:34:15.234Z,30.40
2017-12-20T20:36:46.066Z,27.80
2017-12-20T20:39:29.670Z,25.25
2017-12-20T20:41:59.768Z,25.08
2017-12-20T20:44:29.848Z,24.33
2017-12-20T20:47:02.844Z,26.65
2017-12-20T20:49:32.716Z,25.50
2017-12-20T20:52:03.760Z,24.77
2017-12-20T20:54:34.325Z,30.95
2017-12-20T20:57:04.698Z,28.05
2017-12-20T20:59:34.766Z,25.60
2017-12-20T21:02:07.966Z,22.15
2017-12-20T21:04:37.864Z,20.35
2017-12-20T21:07:08.228Z,17.73
2017-12-20T21:09:37.917Z,27.65
2017-12-20T21:12:08.387Z,26.67
2017-12-20T21:14:39.293Z,27.03
2017-12-20T21:17:09.669Z,22.65
2017-12-20T21:19:39.338Z,19.80
2017-12-20T21:22:09.293Z,19.30
2017-12-20T21:24:38.989Z,19.10
2017-12-20T21:27:08.633Z,16.90
2017-12-20T21:29:39.055Z,14.15
2017-12-20T21:32:09.473Z,13.68
2017-12-20T21:34:39.461Z,9.57
2017-12-20T21:37:09.342Z,11.80
2017-12-20T21:39:39.564Z,9.63
2017-12-20T21:42:10.613Z,13.10
2017-12-20T21:44:41.051Z,11.43
2017-12-20T21:47:12.054Z,13.45
2017-12-20T21:49:41.905Z,14.43
2017-12-20T21:52:11.840Z,14.65
2017-12-20T21:54:41.702Z,13.40
2017-12-20T21:57:11.373Z,12.80
2017-12-20T21:59:42.302Z,12.57
2017-12-20T22:02:12.420Z,13.55
2017-12-20T22:04:42.092Z,16.30
2017-12-20T22:07:13.009Z,20.07
2017-12-20T22:09:44.803Z,23.85
2017-12-20T22:12:15.806Z,24.90
2017-12-20T22:14:45.841Z,26.35
2017-12-20T22:17:16.562Z,19.90
2017-12-20T22:19:47.810Z,12.23
2017-12-20T22:22:17.473Z,13.13
2017-12-20T22:24:47.081Z,11.85
2017-12-20T22:27:17.060Z,10.52
2017-12-20T22:29:47.589Z,9.80
2017-12-20T22:32:17.986Z,13.13
2017-12-20T22:34:47.581Z,11.12
2017-12-20T22:37:18.044Z,8.35
2017-12-20T22:39:48.640Z,7.47
2017-12-20T22:42:18.686Z,6.60
2017-12-20T22:44:49.239Z,8.32
2017-12-20T22:47:19.536Z,12.48
2017-12-20T22:49:49.661Z,14.57
2017-12-20T22:52:20.074Z,13.77
2017-12-20T22:54:50.523Z,11.40
2017-12-20T22:57:20.164Z,13.00
2017-12-20T22:59:49.757Z,7.17
2017-12-20T23:02:19.346Z,9.10
2017-12-20T23:04:49.680Z,7.53
2017-12-20T23:07:20.653Z,7.75
2017-12-20T23:09:50.813Z,8.23
2017-12-20T23:12:20.558Z,11.10
2017-12-20T23:14:50.292Z,15.05
2017-12-20T23:17:20.309Z,12.65
2017-12-20T23:19:52.947Z,15.15
2017-12-20T23:22:23.762Z,13.90
2017-12-20T23:24:54.160Z,14.25
2017-12-20T23:27:24.268Z,14.45
2017-12-20T23:29:54.112Z,11.00
2017-12-20T23:32:23.758Z,12.30
2017-12-20T23:34:53.385Z,8.63
2017-12-20T23:37:22.989Z,9.23
2017-12-20T23:39:52.761Z,7.62
2017-12-20T23:42:23.130Z,7.65
2017-12-20T23:44:52.730Z,7.32
2017-12-20T23:47:22.804Z,7.95
2017-12-20T23:49:52.421Z,7.37
2017-12-20T23:52:22.830Z,6.97
2017-12-20T23:54:53.255Z,7.45
2017-12-20T23:57:22.879Z,6.32
2017-12-20T23:59:52.581Z,6.03
